sensor_id;sensor_type;location;lat;lon;timestamp;P1;durP1;ratioP1;P2;durP2;ratioP2
8060;SDS011;4073;42.626;25.386;2023-05-14T00:02:12;5.53;;;4.93;;
8060;SDS011;4073;42.626;25.386;2023-05-14T00:04:38;4.83;;;4.33;;
8060;SDS011;4073;42.626;25.386;2023-05-14T00:07:03;6.57;;;4.30;;
8060;SDS011;4073;42.626;25.386;2023-05-14T00:09:29;5.93;;;4.63;;
8060;SDS011;4073;42.626;25.386;2023-05-14T00:11:55;4.70;;;4.20;;
8060;SDS011;4073;42.626;25.386;2023-05-14T00:14:20;5.93;;;4.27;;
8060;SDS011;4073;42.626;25.386;2023-05-14T00:16:46;5.07;;;4.67;;
8060;SDS011;4073;42.626;25.386;2023-05-14T00:19:11;5.10;;;4.60;;
8060;SDS011;4073;42.626;25.386;2023-05-14T00:21:37;5.13;;;4.37;;
8060;SDS011;4073;42.626;25.386;2023-05-14T00:24:02;4.77;;;4.10;;
8060;SDS011;4073;42.626;25.386;2023-05-14T00:26:28;4.90;;;4.40;;
8060;SDS011;4073;42.626;25.386;2023-05-14T00:28:53;5.00;;;4.60;;
8060;SDS011;4073;42.626;25.386;2023-05-14T00:31:19;6.33;;;4.40;;
8060;SDS011;4073;42.626;25.386;2023-05-14T00:33:44;4.27;;;3.87;;
8060;SDS011;4073;42.626;25.386;2023-05-14T00:36:10;4.77;;;4.10;;
8060;SDS011;4073;42.626;25.386;2023-05-14T00:38:35;4.47;;;4.07;;
8060;SDS011;4073;42.626;25.386;2023-05-14T00:41:01;6.23;;;4.10;;
8060;SDS011;4073;42.626;25.386;2023-05-14T00:43:26;5.13;;;4.67;;
8060;SDS011;4073;42.626;25.386;2023-05-14T00:45:52;7.23;;;4.17;;
8060;SDS011;4073;42.626;25.386;2023-05-14T00:48:20;4.47;;;3.70;;
8060;SDS011;4073;42.626;25.386;2023-05-14T00:50:46;4.40;;;4.00;;
8060;SDS011;4073;42.626;25.386;2023-05-14T00:53:13;5.80;;;4.20;;
8060;SDS011;4073;42.626;25.386;2023-05-14T00:55:40;4.43;;;4.03;;
8060;SDS011;4073;42.626;25.386;2023-05-14T00:58:06;4.60;;;4.00;;
8060;SDS011;4073;42.626;25.386;2023-05-14T01:00:34;4.00;;;3.70;;
8060;SDS011;4073;42.626;25.386;2023-05-14T01:03:02;5.80;;;4.20;;
8060;SDS011;4073;42.626;25.386;2023-05-14T01:05:29;9.50;;;4.87;;
8060;SDS011;4073;42.626;25.386;2023-05-14T01:08:08;5.57;;;4.33;;
8060;SDS011;4073;42.626;25.386;2023-05-14T01:10:52;4.97;;;4.50;;
8060;SDS011;4073;42.626;25.386;2023-05-14T01:13:37;7.33;;;5.27;;
8060;SDS011;4073;42.626;25.386;2023-05-14T01:16:17;6.50;;;4.67;;
8060;SDS011;4073;42.626;25.386;2023-05-14T01:18:43;7.80;;;4.97;;
8060;SDS011;4073;42.626;25.386;2023-05-14T01:24:02;4.87;;;4.37;;
8060;SDS011;4073;42.626;25.386;2023-05-14T01:26:28;5.83;;;4.97;;
8060;SDS011;4073;42.626;25.386;2023-05-14T01:28:56;5.10;;;4.60;;
8060;SDS011;4073;42.626;25.386;2023-05-14T01:31:27;6.57;;;5.47;;
8060;SDS011;4073;42.626;25.386;2023-05-14T01:33:56;5.27;;;4.77;;
8060;SDS011;4073;42.626;25.386;2023-05-14T01:36:23;5.00;;;4.50;;
8060;SDS011;4073;42.626;25.386;2023-05-14T01:38:48;5.60;;;5.03;;
8060;SDS011;4073;42.626;25.386;2023-05-14T01:41:15;4.57;;;4.10;;
8060;SDS011;4073;42.626;25.386;2023-05-14T01:43:43;5.13;;;4.03;;
8060;SDS011;4073;42.626;25.386;2023-05-14T01:46:09;5.43;;;4.20;;
8060;SDS011;4073;42.626;25.386;2023-05-14T01:48:35;5.57;;;4.50;;
8060;SDS011;4073;42.626;25.386;2023-05-14T01:51:01;4.73;;;4.33;;
8060;SDS011;4073;42.626;25.386;2023-05-14T01:53:28;5.03;;;4.20;;
8060;SDS011;4073;42.626;25.386;2023-05-14T01:55:53;4.37;;;3.97;;
8060;SDS011;4073;42.626;25.386;2023-05-14T01:58:18;4.73;;;4.10;;
8060;SDS011;4073;42.626;25.386;2023-05-14T02:00:44;4.77;;;4.17;;
8060;SDS011;4073;42.626;25.386;2023-05-14T02:03:09;4.67;;;4.10;;
8060;SDS011;4073;42.626;25.386;2023-05-14T02:05:35;4.33;;;3.93;;
8060;SDS011;4073;42.626;25.386;2023-05-14T02:08:00;4.53;;;4.10;;
8060;SDS011;4073;42.626;25.386;2023-05-14T02:10:25;6.03;;;4.27;;
8060;SDS011;4073;42.626;25.386;2023-05-14T02:12:51;4.50;;;3.93;;
8060;SDS011;4073;42.626;25.386;2023-05-14T02:15:16;6.10;;;4.40;;
8060;SDS011;4073;42.626;25.386;2023-05-14T02:17:42;4.33;;;3.93;;
8060;SDS011;4073;42.626;25.386;2023-05-14T02:20:07;5.60;;;3.90;;
8060;SDS011;4073;42.626;25.386;2023-05-14T02:22:34;7.13;;;4.20;;
8060;SDS011;4073;42.626;25.386;2023-05-14T02:25:00;8.80;;;4.67;;
8060;SDS011;4073;42.626;25.386;2023-05-14T02:27:25;4.03;;;3.63;;
8060;SDS011;4073;42.626;25.386;2023-05-14T02:29:51;4.73;;;4.17;;
8060;SDS011;4073;42.626;25.386;2023-05-14T02:32:17;5.97;;;4.27;;
8060;SDS011;4073;42.626;25.386;2023-05-14T02:34:42;5.47;;;4.50;;
8060;SDS011;4073;42.626;25.386;2023-05-14T02:37:07;6.27;;;4.80;;
8060;SDS011;4073;42.626;25.386;2023-05-14T02:39:33;5.13;;;4.17;;
8060;SDS011;4073;42.626;25.386;2023-05-14T02:41:58;3.87;;;3.53;;
8060;SDS011;4073;42.626;25.386;2023-05-14T02:44:24;6.77;;;5.13;;
8060;SDS011;4073;42.626;25.386;2023-05-14T02:46:49;6.73;;;4.53;;
8060;SDS011;4073;42.626;25.386;2023-05-14T02:49:15;4.93;;;4.53;;
8060;SDS011;4073;42.626;25.386;2023-05-14T02:51:40;4.93;;;4.23;;
8060;SDS011;4073;42.626;25.386;2023-05-14T02:54:06;5.60;;;4.00;;
8060;SDS011;4073;42.626;25.386;2023-05-14T02:56:31;5.57;;;3.80;;
8060;SDS011;4073;42.626;25.386;2023-05-14T02:58:56;5.77;;;4.90;;
8060;SDS011;4073;42.626;25.386;2023-05-14T03:01:22;6.57;;;5.03;;
8060;SDS011;4073;42.626;25.386;2023-05-14T03:04:06;5.40;;;4.90;;
8060;SDS011;4073;42.626;25.386;2023-05-14T03:06:31;6.20;;;5.00;;
8060;SDS011;4073;42.626;25.386;2023-05-14T03:08:57;6.33;;;5.33;;
8060;SDS011;4073;42.626;25.386;2023-05-14T03:11:22;5.30;;;4.80;;
8060;SDS011;4073;42.626;25.386;2023-05-14T03:13:48;7.50;;;5.37;;
8060;SDS011;4073;42.626;25.386;2023-05-14T03:16:13;5.77;;;5.17;;
8060;SDS011;4073;42.626;25.386;2023-05-14T03:18:38;10.17;;;5.80;;
8060;SDS011;4073;42.626;25.386;2023-05-14T03:21:04;6.33;;;5.73;;
8060;SDS011;4073;42.626;25.386;2023-05-14T03:23:30;7.90;;;5.90;;
8060;SDS011;4073;42.626;25.386;2023-05-14T03:25:58;5.30;;;4.80;;
8060;SDS011;4073;42.626;25.386;2023-05-14T03:28:24;6.40;;;5.30;;
8060;SDS011;4073;42.626;25.386;2023-05-14T03:30:50;5.63;;;4.57;;
8060;SDS011;4073;42.626;25.386;2023-05-14T03:33:15;4.93;;;4.53;;
8060;SDS011;4073;42.626;25.386;2023-05-14T03:35:41;6.97;;;5.10;;
8060;SDS011;4073;42.626;25.386;2023-05-14T03:38:06;6.10;;;4.80;;
8060;SDS011;4073;42.626;25.386;2023-05-14T03:40:32;7.13;;;5.03;;
8060;SDS011;4073;42.626;25.386;2023-05-14T03:42:57;6.10;;;5.50;;
8060;SDS011;4073;42.626;25.386;2023-05-14T03:45:23;6.43;;;5.70;;
8060;SDS011;4073;42.626;25.386;2023-05-14T03:47:48;8.67;;;5.37;;
8060;SDS011;4073;42.626;25.386;2023-05-14T03:50:14;5.70;;;5.20;;
8060;SDS011;4073;42.626;25.386;2023-05-14T03:52:39;5.80;;;5.30;;
8060;SDS011;4073;42.626;25.386;2023-05-14T03:55:05;6.73;;;5.33;;
8060;SDS011;4073;42.626;25.386;2023-05-14T03:57:31;6.33;;;4.90;;
8060;SDS011;4073;42.626;25.386;2023-05-14T03:59:56;6.63;;;4.63;;
8060;SDS011;4073;42.626;25.386;2023-05-14T04:02:22;6.53;;;4.90;;
8060;SDS011;4073;42.626;25.386;2023-05-14T04:04:47;7.90;;;5.47;;
8060;SDS011;4073;42.626;25.386;2023-05-14T04:07:13;9.37;;;4.30;;
8060;SDS011;4073;42.626;25.386;2023-05-14T04:09:38;5.67;;;5.13;;
8060;SDS011;4073;42.626;25.386;2023-05-14T04:12:04;7.37;;;5.40;;
8060;SDS011;4073;42.626;25.386;2023-05-14T04:14:29;7.73;;;5.20;;
8060;SDS011;4073;42.626;25.386;2023-05-14T04:16:55;5.83;;;5.00;;
8060;SDS011;4073;42.626;25.386;2023-05-14T04:19:20;5.57;;;5.07;;
8060;SDS011;4073;42.626;25.386;2023-05-14T04:21:46;5.53;;;5.03;;
8060;SDS011;4073;42.626;25.386;2023-05-14T04:24:11;5.67;;;4.77;;
8060;SDS011;4073;42.626;25.386;2023-05-14T04:26:36;7.10;;;5.57;;
8060;SDS011;4073;42.626;25.386;2023-05-14T04:29:02;8.90;;;5.80;;
8060;SDS011;4073;42.626;25.386;2023-05-14T04:31:28;9.47;;;5.70;;
8060;SDS011;4073;42.626;25.386;2023-05-14T04:33:54;9.37;;;5.50;;
8060;SDS011;4073;42.626;25.386;2023-05-14T04:36:19;5.23;;;4.73;;
8060;SDS011;4073;42.626;25.386;2023-05-14T04:38:45;4.80;;;4.30;;
8060;SDS011;4073;42.626;25.386;2023-05-14T04:41:10;5.97;;;4.33;;
8060;SDS011;4073;42.626;25.386;2023-05-14T04:43:36;4.93;;;3.97;;
8060;SDS011;4073;42.626;25.386;2023-05-14T04:46:01;5.70;;;4.10;;
8060;SDS011;4073;42.626;25.386;2023-05-14T04:48:27;4.50;;;4.10;;
8060;SDS011;4073;42.626;25.386;2023-05-14T04:50:52;4.97;;;4.47;;
8060;SDS011;4073;42.626;25.386;2023-05-14T04:53:18;7.17;;;4.97;;
8060;SDS011;4073;42.626;25.386;2023-05-14T04:55:43;4.53;;;4.13;;
8060;SDS011;4073;42.626;25.386;2023-05-14T04:58:08;6.13;;;4.47;;
8060;SDS011;4073;42.626;25.386;2023-05-14T05:00:34;7.10;;;4.70;;
8060;SDS011;4073;42.626;25.386;2023-05-14T05:02:59;4.87;;;3.70;;
8060;SDS011;4073;42.626;25.386;2023-05-14T05:05:25;4.87;;;4.30;;
8060;SDS011;4073;42.626;25.386;2023-05-14T05:07:50;6.40;;;3.93;;
8060;SDS011;4073;42.626;25.386;2023-05-14T05:10:15;4.07;;;3.70;;
8060;SDS011;4073;42.626;25.386;2023-05-14T05:12:41;4.57;;;3.60;;
8060;SDS011;4073;42.626;25.386;2023-05-14T05:15:07;4.97;;;3.40;;
8060;SDS011;4073;42.626;25.386;2023-05-14T05:17:33;6.97;;;3.90;;
8060;SDS011;4073;42.626;25.386;2023-05-14T05:19:59;4.87;;;3.90;;
8060;SDS011;4073;42.626;25.386;2023-05-14T05:22:25;4.23;;;3.80;;
8060;SDS011;4073;42.626;25.386;2023-05-14T05:24:50;12.50;;;3.87;;
8060;SDS011;4073;42.626;25.386;2023-05-14T05:27:16;6.13;;;3.67;;
8060;SDS011;4073;42.626;25.386;2023-05-14T05:29:42;4.93;;;3.67;;
8060;SDS011;4073;42.626;25.386;2023-05-14T05:32:08;3.87;;;3.57;;
8060;SDS011;4073;42.626;25.386;2023-05-14T05:34:34;5.03;;;3.70;;
8060;SDS011;4073;42.626;25.386;2023-05-14T05:37:00;4.03;;;3.60;;
8060;SDS011;4073;42.626;25.386;2023-05-14T05:39:26;4.20;;;3.60;;
8060;SDS011;4073;42.626;25.386;2023-05-14T05:41:52;3.77;;;3.13;;
8060;SDS011;4073;42.626;25.386;2023-05-14T05:44:18;5.47;;;4.10;;
8060;SDS011;4073;42.626;25.386;2023-05-14T05:46:43;4.03;;;3.63;;
8060;SDS011;4073;42.626;25.386;2023-05-14T05:49:09;4.50;;;4.10;;
8060;SDS011;4073;42.626;25.386;2023-05-14T05:51:34;5.20;;;4.67;;
8060;SDS011;4073;42.626;25.386;2023-05-14T05:54:00;4.60;;;4.07;;
8060;SDS011;4073;42.626;25.386;2023-05-14T05:56:25;7.77;;;4.20;;
8060;SDS011;4073;42.626;25.386;2023-05-14T05:58:50;4.47;;;3.83;;
8060;SDS011;4073;42.626;25.386;2023-05-14T06:01:16;6.30;;;3.63;;
8060;SDS011;4073;42.626;25.386;2023-05-14T06:03:41;6.83;;;4.60;;
8060;SDS011;4073;42.626;25.386;2023-05-14T06:06:07;4.93;;;4.53;;
8060;SDS011;4073;42.626;25.386;2023-05-14T06:08:32;7.57;;;4.83;;
8060;SDS011;4073;42.626;25.386;2023-05-14T06:10:58;4.57;;;4.03;;
8060;SDS011;4073;42.626;25.386;2023-05-14T06:13:23;5.13;;;4.20;;
8060;SDS011;4073;42.626;25.386;2023-05-14T06:15:49;6.47;;;4.20;;
8060;SDS011;4073;42.626;25.386;2023-05-14T06:18:14;7.67;;;4.50;;
8060;SDS011;4073;42.626;25.386;2023-05-14T06:20:40;5.33;;;4.20;;
8060;SDS011;4073;42.626;25.386;2023-05-14T06:23:05;5.97;;;5.03;;
8060;SDS011;4073;42.626;25.386;2023-05-14T06:25:31;6.17;;;4.17;;
8060;SDS011;4073;42.626;25.386;2023-05-14T06:27:57;5.30;;;4.47;;
8060;SDS011;4073;42.626;25.386;2023-05-14T06:30:23;5.53;;;4.23;;
8060;SDS011;4073;42.626;25.386;2023-05-14T06:32:48;6.40;;;3.83;;
8060;SDS011;4073;42.626;25.386;2023-05-14T06:35:14;6.30;;;4.27;;
8060;SDS011;4073;42.626;25.386;2023-05-14T06:37:39;6.23;;;4.13;;
8060;SDS011;4073;42.626;25.386;2023-05-14T06:40:05;4.27;;;3.83;;
8060;SDS011;4073;42.626;25.386;2023-05-14T06:42:31;6.27;;;3.90;;
8060;SDS011;4073;42.626;25.386;2023-05-14T06:44:56;6.67;;;4.03;;
8060;SDS011;4073;42.626;25.386;2023-05-14T06:47:21;4.97;;;3.97;;
8060;SDS011;4073;42.626;25.386;2023-05-14T06:49:47;8.37;;;4.03;;
8060;SDS011;4073;42.626;25.386;2023-05-14T06:52:12;6.07;;;4.30;;
8060;SDS011;4073;42.626;25.386;2023-05-14T06:54:38;4.80;;;4.03;;
8060;SDS011;4073;42.626;25.386;2023-05-14T06:57:03;7.57;;;4.20;;
8060;SDS011;4073;42.626;25.386;2023-05-14T06:59:29;5.17;;;3.87;;
8060;SDS011;4073;42.626;25.386;2023-05-14T07:01:54;4.90;;;4.30;;
8060;SDS011;4073;42.626;25.386;2023-05-14T07:04:20;4.97;;;4.47;;
8060;SDS011;4073;42.626;25.386;2023-05-14T07:06:45;4.13;;;3.73;;
8060;SDS011;4073;42.626;25.386;2023-05-14T07:09:10;5.23;;;4.73;;
8060;SDS011;4073;42.626;25.386;2023-05-14T07:11:37;5.77;;;4.13;;
8060;SDS011;4073;42.626;25.386;2023-05-14T07:14:02;6.43;;;4.47;;
8060;SDS011;4073;42.626;25.386;2023-05-14T07:16:28;4.73;;;4.17;;
8060;SDS011;4073;42.626;25.386;2023-05-14T07:18:53;5.83;;;4.57;;
8060;SDS011;4073;42.626;25.386;2023-05-14T07:21:18;4.77;;;3.73;;
8060;SDS011;4073;42.626;25.386;2023-05-14T07:23:44;5.40;;;3.87;;
8060;SDS011;4073;42.626;25.386;2023-05-14T07:26:09;4.63;;;4.23;;
8060;SDS011;4073;42.626;25.386;2023-05-14T07:28:35;7.97;;;5.63;;
8060;SDS011;4073;42.626;25.386;2023-05-14T07:31:01;5.17;;;4.53;;
8060;SDS011;4073;42.626;25.386;2023-05-14T07:33:28;6.27;;;4.50;;
8060;SDS011;4073;42.626;25.386;2023-05-14T07:35:54;4.77;;;4.27;;
8060;SDS011;4073;42.626;25.386;2023-05-14T07:38:19;6.27;;;4.03;;
8060;SDS011;4073;42.626;25.386;2023-05-14T07:40:45;5.13;;;3.77;;
8060;SDS011;4073;42.626;25.386;2023-05-14T07:43:11;6.10;;;4.90;;
8060;SDS011;4073;42.626;25.386;2023-05-14T07:45:36;5.67;;;4.97;;
8060;SDS011;4073;42.626;25.386;2023-05-14T07:48:03;6.53;;;5.27;;
8060;SDS011;4073;42.626;25.386;2023-05-14T07:50:29;5.67;;;3.87;;
8060;SDS011;4073;42.626;25.386;2023-05-14T07:52:55;6.60;;;5.00;;
8060;SDS011;4073;42.626;25.386;2023-05-14T07:55:20;6.63;;;4.13;;
8060;SDS011;4073;42.626;25.386;2023-05-14T07:57:46;6.10;;;4.50;;
8060;SDS011;4073;42.626;25.386;2023-05-14T08:00:11;5.40;;;4.43;;
8060;SDS011;4073;42.626;25.386;2023-05-14T08:02:37;5.23;;;4.47;;
8060;SDS011;4073;42.626;25.386;2023-05-14T08:05:02;4.87;;;4.43;;
8060;SDS011;4073;42.626;25.386;2023-05-14T08:07:28;5.67;;;4.40;;
8060;SDS011;4073;42.626;25.386;2023-05-14T08:09:54;5.93;;;3.70;;
8060;SDS011;4073;42.626;25.386;2023-05-14T08:12:20;4.33;;;3.73;;
8060;SDS011;4073;42.626;25.386;2023-05-14T08:14:45;5.20;;;4.13;;
8060;SDS011;4073;42.626;25.386;2023-05-14T08:17:11;4.10;;;3.63;;
8060;SDS011;4073;42.626;25.386;2023-05-14T08:19:37;7.83;;;3.60;;
8060;SDS011;4073;42.626;25.386;2023-05-14T08:22:02;3.73;;;3.40;;
8060;SDS011;4073;42.626;25.386;2023-05-14T08:24:28;5.87;;;5.03;;
8060;SDS011;4073;42.626;25.386;2023-05-14T08:26:54;5.00;;;4.50;;
8060;SDS011;4073;42.626;25.386;2023-05-14T08:29:21;7.63;;;4.50;;
8060;SDS011;4073;42.626;25.386;2023-05-14T08:31:48;12.67;;;6.23;;
8060;SDS011;4073;42.626;25.386;2023-05-14T08:34:13;5.27;;;3.97;;
8060;SDS011;4073;42.626;25.386;2023-05-14T08:36:39;4.30;;;3.70;;
8060;SDS011;4073;42.626;25.386;2023-05-14T08:39:05;8.07;;;4.93;;
8060;SDS011;4073;42.626;25.386;2023-05-14T08:41:31;5.90;;;4.17;;
8060;SDS011;4073;42.626;25.386;2023-05-14T08:46:36;7.50;;;4.60;;
8060;SDS011;4073;42.626;25.386;2023-05-14T08:52:10;8.70;;;6.20;;
8060;SDS011;4073;42.626;25.386;2023-05-14T08:54:36;5.10;;;4.20;;
8060;SDS011;4073;42.626;25.386;2023-05-14T08:57:02;9.40;;;6.07;;
8060;SDS011;4073;42.626;25.386;2023-05-14T08:59:29;9.37;;;5.37;;
8060;SDS011;4073;42.626;25.386;2023-05-14T09:01:55;7.97;;;5.43;;
8060;SDS011;4073;42.626;25.386;2023-05-14T09:04:23;8.70;;;6.97;;
8060;SDS011;4073;42.626;25.386;2023-05-14T09:06:50;11.73;;;7.80;;
8060;SDS011;4073;42.626;25.386;2023-05-14T09:09:20;14.07;;;8.00;;
8060;SDS011;4073;42.626;25.386;2023-05-14T09:11:47;9.20;;;8.03;;
8060;SDS011;4073;42.626;25.386;2023-05-14T09:14:14;16.37;;;10.77;;
8060;SDS011;4073;42.626;25.386;2023-05-14T09:16:40;13.90;;;9.67;;
8060;SDS011;4073;42.626;25.386;2023-05-14T09:19:07;14.73;;;9.90;;
8060;SDS011;4073;42.626;25.386;2023-05-14T09:21:33;14.77;;;12.60;;
8060;SDS011;4073;42.626;25.386;2023-05-14T09:23:59;15.57;;;13.97;;
8060;SDS011;4073;42.626;25.386;2023-05-14T09:26:25;9.43;;;8.37;;
8060;SDS011;4073;42.626;25.386;2023-05-14T09:28:55;40.60;;;30.63;;
8060;SDS011;4073;42.626;25.386;2023-05-14T09:31:25;13.27;;;11.50;;
8060;SDS011;4073;42.626;25.386;2023-05-14T09:33:51;7.97;;;6.60;;
8060;SDS011;4073;42.626;25.386;2023-05-14T09:36:17;15.00;;;11.40;;
8060;SDS011;4073;42.626;25.386;2023-05-14T09:38:43;11.17;;;9.30;;
8060;SDS011;4073;42.626;25.386;2023-05-14T09:41:09;13.30;;;9.33;;
8060;SDS011;4073;42.626;25.386;2023-05-14T09:43:34;13.00;;;7.97;;
8060;SDS011;4073;42.626;25.386;2023-05-14T09:46:00;13.60;;;8.53;;
8060;SDS011;4073;42.626;25.386;2023-05-14T09:48:25;9.67;;;8.07;;
8060;SDS011;4073;42.626;25.386;2023-05-14T09:50:51;14.40;;;10.73;;
8060;SDS011;4073;42.626;25.386;2023-05-14T09:53:17;15.87;;;9.30;;
8060;SDS011;4073;42.626;25.386;2023-05-14T09:55:43;16.17;;;9.70;;
8060;SDS011;4073;42.626;25.386;2023-05-14T09:58:09;11.07;;;8.70;;
8060;SDS011;4073;42.626;25.386;2023-05-14T10:00:35;8.83;;;7.93;;
8060;SDS011;4073;42.626;25.386;2023-05-14T10:03:06;7.60;;;6.83;;
8060;SDS011;4073;42.626;25.386;2023-05-14T10:05:35;7.53;;;5.97;;
8060;SDS011;4073;42.626;25.386;2023-05-14T10:08:02;7.33;;;5.63;;
8060;SDS011;4073;42.626;25.386;2023-05-14T10:10:33;6.40;;;5.40;;
8060;SDS011;4073;42.626;25.386;2023-05-14T10:13:03;5.33;;;4.83;;
8060;SDS011;4073;42.626;25.386;2023-05-14T10:17:58;7.03;;;4.40;;
8060;SDS011;4073;42.626;25.386;2023-05-14T10:20:27;4.73;;;4.27;;
8060;SDS011;4073;42.626;25.386;2023-05-14T10:22:53;7.50;;;5.10;;
8060;SDS011;4073;42.626;25.386;2023-05-14T10:25:20;4.97;;;4.43;;
8060;SDS011;4073;42.626;25.386;2023-05-14T10:27:46;6.67;;;4.60;;
8060;SDS011;4073;42.626;25.386;2023-05-14T10:30:11;6.40;;;4.73;;
8060;SDS011;4073;42.626;25.386;2023-05-14T10:32:37;6.10;;;5.50;;
8060;SDS011;4073;42.626;25.386;2023-05-14T10:35:13;5.63;;;4.50;;
8060;SDS011;4073;42.626;25.386;2023-05-14T10:37:41;4.67;;;4.17;;
8060;SDS011;4073;42.626;25.386;2023-05-14T10:40:09;6.77;;;5.40;;
8060;SDS011;4073;42.626;25.386;2023-05-14T10:42:37;7.27;;;6.37;;
8060;SDS011;4073;42.626;25.386;2023-05-14T10:45:13;5.23;;;4.80;;
8060;SDS011;4073;42.626;25.386;2023-05-14T10:47:46;6.47;;;5.87;;
8060;SDS011;4073;42.626;25.386;2023-05-14T10:50:13;5.60;;;4.13;;
8060;SDS011;4073;42.626;25.386;2023-05-14T10:52:43;6.23;;;5.10;;
8060;SDS011;4073;42.626;25.386;2023-05-14T10:55:11;7.03;;;6.20;;
8060;SDS011;4073;42.626;25.386;2023-05-14T10:57:38;6.97;;;5.60;;
8060;SDS011;4073;42.626;25.386;2023-05-14T11:00:06;6.33;;;5.50;;
8060;SDS011;4073;42.626;25.386;2023-05-14T11:05:04;6.60;;;5.20;;
8060;SDS011;4073;42.626;25.386;2023-05-14T11:07:39;9.90;;;5.80;;
8060;SDS011;4073;42.626;25.386;2023-05-14T11:10:10;7.43;;;5.37;;
8060;SDS011;4073;42.626;25.386;2023-05-14T11:12:39;6.83;;;6.23;;
8060;SDS011;4073;42.626;25.386;2023-05-14T11:15:07;7.63;;;5.93;;
8060;SDS011;4073;42.626;25.386;2023-05-14T11:17:34;6.50;;;5.40;;
8060;SDS011;4073;42.626;25.386;2023-05-14T11:20:01;5.83;;;5.23;;
8060;SDS011;4073;42.626;25.386;2023-05-14T11:22:27;10.27;;;6.63;;
8060;SDS011;4073;42.626;25.386;2023-05-14T11:24:53;8.67;;;6.57;;
8060;SDS011;4073;42.626;25.386;2023-05-14T11:27:19;6.17;;;5.67;;
8060;SDS011;4073;42.626;25.386;2023-05-14T11:29:46;8.43;;;5.43;;
8060;SDS011;4073;42.626;25.386;2023-05-14T11:32:13;5.57;;;5.07;;
8060;SDS011;4073;42.626;25.386;2023-05-14T11:34:40;6.00;;;5.40;;
8060;SDS011;4073;42.626;25.386;2023-05-14T11:37:07;8.83;;;6.13;;
8060;SDS011;4073;42.626;25.386;2023-05-14T11:39:34;6.27;;;5.40;;
8060;SDS011;4073;42.626;25.386;2023-05-14T11:42:02;7.23;;;5.80;;
8060;SDS011;4073;42.626;25.386;2023-05-14T11:44:29;6.57;;;5.60;;
8060;SDS011;4073;42.626;25.386;2023-05-14T11:46:55;5.37;;;4.87;;
8060;SDS011;4073;42.626;25.386;2023-05-14T11:49:22;9.17;;;6.07;;
8060;SDS011;4073;42.626;25.386;2023-05-14T11:51:49;6.83;;;6.10;;
8060;SDS011;4073;42.626;25.386;2023-05-14T11:54:15;6.37;;;5.73;;
8060;SDS011;4073;42.626;25.386;2023-05-14T11:56:40;6.93;;;6.07;;
8060;SDS011;4073;42.626;25.386;2023-05-14T11:59:06;6.37;;;5.77;;
8060;SDS011;4073;42.626;25.386;2023-05-14T12:01:37;7.93;;;6.33;;
8060;SDS011;4073;42.626;25.386;2023-05-14T12:04:03;6.93;;;5.13;;
8060;SDS011;4073;42.626;25.386;2023-05-14T12:06:32;10.27;;;4.80;;
8060;SDS011;4073;42.626;25.386;2023-05-14T12:08:57;6.80;;;6.07;;
8060;SDS011;4073;42.626;25.386;2023-05-14T12:11:24;8.20;;;5.53;;
8060;SDS011;4073;42.626;25.386;2023-05-14T12:13:55;6.30;;;5.60;;
8060;SDS011;4073;42.626;25.386;2023-05-14T12:16:20;7.40;;;5.53;;
8060;SDS011;4073;42.626;25.386;2023-05-14T12:18:46;6.97;;;6.27;;
8060;SDS011;4073;42.626;25.386;2023-05-14T12:21:11;6.83;;;6.20;;
8060;SDS011;4073;42.626;25.386;2023-05-14T12:23:37;7.23;;;6.53;;
8060;SDS011;4073;42.626;25.386;2023-05-14T12:26:03;7.63;;;6.83;;
8060;SDS011;4073;42.626;25.386;2023-05-14T12:28:30;7.87;;;7.07;;
8060;SDS011;4073;42.626;25.386;2023-05-14T12:30:56;8.07;;;6.97;;
8060;SDS011;4073;42.626;25.386;2023-05-14T12:33:23;7.53;;;6.63;;
8060;SDS011;4073;42.626;25.386;2023-05-14T12:35:51;6.40;;;5.87;;
8060;SDS011;4073;42.626;25.386;2023-05-14T12:38:26;8.10;;;7.30;;
8060;SDS011;4073;42.626;25.386;2023-05-14T12:40:51;7.20;;;6.50;;
8060;SDS011;4073;42.626;25.386;2023-05-14T12:43:17;7.53;;;6.33;;
8060;SDS011;4073;42.626;25.386;2023-05-14T12:45:43;6.93;;;6.23;;
8060;SDS011;4073;42.626;25.386;2023-05-14T12:48:09;6.70;;;6.10;;
8060;SDS011;4073;42.626;25.386;2023-05-14T12:50:35;8.93;;;7.20;;
8060;SDS011;4073;42.626;25.386;2023-05-14T12:53:00;8.30;;;7.50;;
8060;SDS011;4073;42.626;25.386;2023-05-14T12:55:26;8.87;;;7.97;;
8060;SDS011;4073;42.626;25.386;2023-05-14T12:57:51;7.73;;;6.57;;
8060;SDS011;4073;42.626;25.386;2023-05-14T13:00:18;7.43;;;6.73;;
8060;SDS011;4073;42.626;25.386;2023-05-14T13:02:44;9.60;;;6.83;;
8060;SDS011;4073;42.626;25.386;2023-05-14T13:05:09;8.40;;;7.57;;
8060;SDS011;4073;42.626;25.386;2023-05-14T13:07:36;7.97;;;7.27;;
8060;SDS011;4073;42.626;25.386;2023-05-14T13:10:01;7.50;;;6.80;;
8060;SDS011;4073;42.626;25.386;2023-05-14T13:12:29;8.70;;;7.33;;
8060;SDS011;4073;42.626;25.386;2023-05-14T13:14:54;8.17;;;6.97;;
8060;SDS011;4073;42.626;25.386;2023-05-14T13:17:20;7.70;;;7.00;;
8060;SDS011;4073;42.626;25.386;2023-05-14T13:19:45;8.40;;;7.63;;
8060;SDS011;4073;42.626;25.386;2023-05-14T13:22:11;9.03;;;7.60;;
8060;SDS011;4073;42.626;25.386;2023-05-14T13:24:36;8.30;;;7.17;;
8060;SDS011;4073;42.626;25.386;2023-05-14T13:27:02;8.27;;;7.47;;
8060;SDS011;4073;42.626;25.386;2023-05-14T13:29:27;7.50;;;6.80;;
8060;SDS011;4073;42.626;25.386;2023-05-14T13:31:53;7.77;;;7.07;;
8060;SDS011;4073;42.626;25.386;2023-05-14T13:34:19;9.70;;;7.53;;
8060;SDS011;4073;42.626;25.386;2023-05-14T13:36:45;8.10;;;7.03;;
8060;SDS011;4073;42.626;25.386;2023-05-14T13:39:11;9.07;;;8.17;;
8060;SDS011;4073;42.626;25.386;2023-05-14T13:41:36;9.67;;;8.67;;
8060;SDS011;4073;42.626;25.386;2023-05-14T13:44:02;9.07;;;7.70;;
8060;SDS011;4073;42.626;25.386;2023-05-14T13:46:28;8.80;;;7.37;;
8060;SDS011;4073;42.626;25.386;2023-05-14T13:48:54;8.40;;;7.70;;
8060;SDS011;4073;42.626;25.386;2023-05-14T13:51:19;10.07;;;8.57;;
8060;SDS011;4073;42.626;25.386;2023-05-14T13:53:44;9.57;;;7.53;;
8060;SDS011;4073;42.626;25.386;2023-05-14T13:56:10;7.43;;;6.73;;
8060;SDS011;4073;42.626;25.386;2023-05-14T13:58:35;13.23;;;11.87;;
8060;SDS011;4073;42.626;25.386;2023-05-14T14:01:01;8.27;;;7.47;;
8060;SDS011;4073;42.626;25.386;2023-05-14T14:03:27;7.10;;;6.43;;
8060;SDS011;4073;42.626;25.386;2023-05-14T14:05:52;8.27;;;6.83;;
8060;SDS011;4073;42.626;25.386;2023-05-14T14:08:18;10.23;;;6.13;;
8060;SDS011;4073;42.626;25.386;2023-05-14T14:10:43;11.47;;;6.33;;
8060;SDS011;4073;42.626;25.386;2023-05-14T14:13:09;6.80;;;5.97;;
8060;SDS011;4073;42.626;25.386;2023-05-14T14:15:35;7.67;;;6.97;;
8060;SDS011;4073;42.626;25.386;2023-05-14T14:18:01;6.33;;;5.10;;
8060;SDS011;4073;42.626;25.386;2023-05-14T14:20:26;5.63;;;5.07;;
8060;SDS011;4073;42.626;25.386;2023-05-14T14:22:52;7.60;;;6.73;;
8060;SDS011;4073;42.626;25.386;2023-05-14T14:25:18;7.60;;;5.87;;
8060;SDS011;4073;42.626;25.386;2023-05-14T14:27:44;7.30;;;5.70;;
8060;SDS011;4073;42.626;25.386;2023-05-14T14:30:10;9.57;;;6.30;;
8060;SDS011;4073;42.626;25.386;2023-05-14T14:32:49;9.30;;;6.33;;
8060;SDS011;4073;42.626;25.386;2023-05-14T14:35:14;9.87;;;6.90;;
8060;SDS011;4073;42.626;25.386;2023-05-14T14:37:42;8.00;;;7.10;;
8060;SDS011;4073;42.626;25.386;2023-05-14T14:40:12;7.60;;;6.37;;
8060;SDS011;4073;42.626;25.386;2023-05-14T14:42:37;7.80;;;7.00;;
8060;SDS011;4073;42.626;25.386;2023-05-14T14:45:03;9.80;;;7.67;;
8060;SDS011;4073;42.626;25.386;2023-05-14T14:47:29;9.33;;;6.63;;
8060;SDS011;4073;42.626;25.386;2023-05-14T14:49:55;8.13;;;6.13;;
8060;SDS011;4073;42.626;25.386;2023-05-14T14:52:22;6.57;;;5.77;;
8060;SDS011;4073;42.626;25.386;2023-05-14T14:54:48;5.90;;;5.13;;
8060;SDS011;4073;42.626;25.386;2023-05-14T14:57:14;5.90;;;5.07;;
8060;SDS011;4073;42.626;25.386;2023-05-14T14:59:40;7.03;;;6.07;;
8060;SDS011;4073;42.626;25.386;2023-05-14T15:02:05;5.73;;;5.23;;
8060;SDS011;4073;42.626;25.386;2023-05-14T15:04:33;6.83;;;5.40;;
8060;SDS011;4073;42.626;25.386;2023-05-14T15:06:58;9.13;;;6.50;;
8060;SDS011;4073;42.626;25.386;2023-05-14T15:09:25;8.27;;;7.47;;